AirNav   SIMCOM
 
 509 users online  

1D8 Redfield Municipal Airport
Redfield, South Dakota, USA

GOING TO REDFIELD?


FAA INFORMATION EFFECTIVE 09 NOVEMBER 2017

Location

FAA Identifier: 1D8
Lat/Long: 44-51-44.9140N / 098-31-46.3430W
44-51.748567N / 098-31.772383W
44.8624761 / -98.5295397
(estimated)
Elevation: 1307 ft. / 398.4 m (surveyed)
Variation: 07E (1985)
From city: 1 mile SW of REDFIELD, SD
Time zone: UTC -6 (UTC -5 during Daylight Saving Time)
Zip code: 57469

Airport Operations

Airport use: Open to the public
Activation date: 11/1945
Control tower: no
ARTCC: MINNEAPOLIS CENTER
FSS: HURON FLIGHT SERVICE STATION
NOTAMs facility: HON (NOTAM-D service available)
Attendance: UNATNDD
Wind indicator: lighted
Segmented circle: yes
Beacon: white-green (lighted land airport)
Operates sunset to sunrise.

Airport Communications

CTAF/UNICOM: 122.8
  • UNICOM UNMONITORED.

Nearby radio navigation aids

VOR radial/distance  VOR name  Freq  Var
HONr330/27.0HURON VORTAC117.6010E
ABRr185/34.0ABERDEEN VOR/DME113.0007E

Airport Services

Fuel available: 100LL
FUEL AVBL 24 HRS WITH CREDIT CARD.
Parking: tiedowns
Airframe service: MINOR
Powerplant service: MINOR
Bottled oxygen: NONE
Bulk oxygen: NONE

Runway Information

Runway 13/31

Dimensions: 3300 x 60 ft. / 1006 x 18 m
Surface: asphalt, in fair condition
Weight bearing capacity: 
Single wheel: 13.0
Runway edge lights: low intensity
RUNWAY 13  RUNWAY 31
Latitude: 44-51.798167N44-51.373833N
Longitude: 098-31.991833W098-31.515333W
Elevation: 1303.0 ft.1303.0 ft.
Gradient: 0.1%0.1%
Traffic pattern: leftleft
Markings: basic, in fair conditionbasic, in fair condition
Runway end identifier lights: nono
Obstructions: 18 ft. tree, 600 ft. from runway, 22:1 slope to clear40 ft. trees, 1860 ft. from runway, 41:1 slope to clear

Runway 1/19

Dimensions: 2500 x 250 ft. / 762 x 76 m
Surface: turf, in good condition
RUNWAY 1  RUNWAY 19
Gradient: 0.2%0.2%
Traffic pattern: leftleft
Runway end identifier lights: nono
Obstructions: none36 ft. tree, 731 ft. from runway, 35 ft. right of centerline, 20:1 slope to clear

Airport Ownership and Management from official FAA records

Ownership: Publicly-owned
Owner: CITY OF REDFIELD
626 N. MAIN STREET
REDFIELD, SD 57469
Phone 605-472-4550
Manager: ADAM HANSEN
626 N. MAIN STREET, 626 N. MAIN ST
REDFIELD, SD 57469
Phone 605-472-4550

Airport Operational Statistics

Aircraft based on the field: 19
Single engine airplanes: 17
Multi engine airplanes: 1
Ultralights: 1
    
Aircraft operations: avg 77/week *
88% local general aviation
12% transient general aviation
* for 12-month period ending 02 February 2016

Additional Remarks

ULTRALIGHT ACTIVITY ON AND INVOF ARPT.
MIGRATORY BIRDS AND WILDILFE ON AND INVOF ARPT.

Instrument Procedures

There are no published instrument procedures at 1D8.

Some nearby airports with instrument procedures:

KMKA - Miller Municipal Airport (27 nm SW)
KHON - Huron Regional Airport (31 nm SE)
8D7 - Clark County Airport (35 nm E)
KABR - Aberdeen Regional Airport (35 nm N)
9D0 - Highmore Municipal Airport (44 nm SW)
 
Loc | Ops | Rwys | IFR | FBO | Links
Com | Nav | Svcs | Stats | Notes


 
Area around 1D8 (Redfield Municipal Airport)
 
Road maps at: MapQuest Bing Google
 
Aerial photo
WARNING: Photo may not be current or correct
Aerial photo of 1D8 (Redfield Municipal Airport)
Photo by Steve Hamilton
Photo taken 28-Aug-2011
looking north.

Do you have a better or more recent aerial photo of Redfield Municipal Airport that you would like to share? If so, please send us your photo.

 
Sectional chart

 
Airport distance calculator
Flying to Redfield Municipal Airport? Find the distance to fly.

From to 1D8

Sunrise and sunset
Times for 18-Nov-2017
 Local
(UTC-6)
 Zulu
(UTC)
Morning civil twilight07:0513:05
Sunrise07:3713:37
Sunset17:0223:02
Evening civil twilight17:3423:34

Current date and time
Zulu (UTC)  18-Nov-2017 12:16:48
Local (UTC-6)  18-Nov-2017 06:16:48
 
METAR
3FU 
27nm W 
SuperAWOS
181112Z AUTO M03/M07 A2985
KMKA 
27nm SW 
SuperAWOS
181155Z AUTO 10SM A2992
KHON 
31nm SE 
181155Z AUTO 34004KT 9SM CLR M06/M08 A2991 RMK AO2 SLP141 T10561078 10006 21056 53021
8D7 
35nm E 
SuperAWOS
181215Z AUTO 32005KT 10SM M06/M08 A2984
KABR 
36nm N 
181153Z AUTO 36005KT 10SM FEW026 M08/M09 A2993 RMK AO2 SLP152 T10831094 11028 21083 53023
9D0 
44nm SW 
SuperAWOS
181155Z AUTO 32008KT 10SM M01/M03 A2990
6E5 
49nm SE 
SuperAWOS
181155Z AUTO 00000KT 10SM M05/M08 A2991
TAF
KHON 
31nm SE 
181131Z 1812/1912 33007KT P6SM SCT100 FM181400 32012G20KT P6SM SCT035 SCT250 FM181700 33019G28KT P6SM SCT150 FM190000 32008KT P6SM FEW200 FM190800 22004KT P6SM FEW250
KABR 
36nm N 
181138Z 1812/1912 34005KT P6SM SKC FM181400 33013G19KT P6SM BKN025 FM190000 32009KT P6SM FEW250 FM190500 22004KT P6SM FEW250
NOTAMs
Click for the latest NOTAMs
NOTAMs are issued by the DoD/FAA and will open in a separate window not controlled by AirNav.

 

 
 

FBO, Fuel Providers, and Aircraft Ground Support

  
 Business Name 
 
 Contact 
 
 Services / Description 
 
Fuel Prices
 
Comments
  
City of Redfield 605-472-4550
no information available

If you are affiliated with City of Redfield and would like to show here your services, contact info, web link, logo, and more, click here
100LL
SS $5.45 
 Updated 15-Jun-2015
 
   write
SS=Self service
Update Fuel Prices
 

Would you like to see your business listed on this page?

 If your business provides an interesting product or service to pilots, flight crews, aircraft, or users of the Redfield Municipal Airport, you should consider listing it here.  To start the listing process, click on the button below
 
Add a business
 

Other Pages about Redfield Municipal Airport

www.redfield-sd.com/...
 
Update a link
 
Copyright © AirNav, LLC. All rights reserved. Privacy Policy  Contact